sensor_id;sensor_type;location;lat;lon;timestamp;P1;durP1;ratioP1;P2;durP2;ratioP2
3193;SDS011;1608;50.860;13.466;2022-11-15T00:00:28;34.10;;;18.17;;
3193;SDS011;1608;50.860;13.466;2022-11-15T00:02:55;34.87;;;18.50;;
3193;SDS011;1608;50.860;13.466;2022-11-15T00:05:23;32.03;;;18.50;;
3193;SDS011;1608;50.860;13.466;2022-11-15T00:07:50;31.73;;;16.90;;
3193;SDS011;1608;50.860;13.466;2022-11-15T00:10:17;33.90;;;18.00;;
3193;SDS011;1608;50.860;13.466;2022-11-15T00:12:44;30.93;;;18.63;;
3193;SDS011;1608;50.860;13.466;2022-11-15T00:15:10;33.73;;;17.83;;
3193;SDS011;1608;50.860;13.466;2022-11-15T00:17:37;29.07;;;16.43;;
3193;SDS011;1608;50.860;13.466;2022-11-15T00:20:04;34.07;;;17.67;;
3193;SDS011;1608;50.860;13.466;2022-11-15T00:22:33;33.10;;;17.90;;
3193;SDS011;1608;50.860;13.466;2022-11-15T00:25:00;37.70;;;18.07;;
3193;SDS011;1608;50.860;13.466;2022-11-15T00:27:28;29.47;;;17.63;;
3193;SDS011;1608;50.860;13.466;2022-11-15T00:29:55;32.37;;;16.43;;
3193;SDS011;1608;50.860;13.466;2022-11-15T00:32:22;28.40;;;17.50;;
3193;SDS011;1608;50.860;13.466;2022-11-15T00:34:48;28.50;;;17.73;;
3193;SDS011;1608;50.860;13.466;2022-11-15T00:37:15;36.27;;;19.37;;
3193;SDS011;1608;50.860;13.466;2022-11-15T00:39:43;28.70;;;17.37;;
3193;SDS011;1608;50.860;13.466;2022-11-15T00:42:10;40.73;;;17.70;;
3193;SDS011;1608;50.860;13.466;2022-11-15T00:44:37;29.00;;;16.10;;
3193;SDS011;1608;50.860;13.466;2022-11-15T00:47:04;29.43;;;16.47;;
3193;SDS011;1608;50.860;13.466;2022-11-15T00:49:31;27.60;;;13.23;;
3193;SDS011;1608;50.860;13.466;2022-11-15T00:51:57;28.70;;;16.17;;
3193;SDS011;1608;50.860;13.466;2022-11-15T00:54:24;25.73;;;13.43;;
3193;SDS011;1608;50.860;13.466;2022-11-15T00:56:52;27.20;;;12.93;;
3193;SDS011;1608;50.860;13.466;2022-11-15T00:59:19;23.70;;;12.30;;
3193;SDS011;1608;50.860;13.466;2022-11-15T01:01:46;27.63;;;13.77;;
3193;SDS011;1608;50.860;13.466;2022-11-15T01:04:13;21.57;;;11.77;;
3193;SDS011;1608;50.860;13.466;2022-11-15T01:06:40;15.97;;;11.57;;
3193;SDS011;1608;50.860;13.466;2022-11-15T01:09:07;24.70;;;12.87;;
3193;SDS011;1608;50.860;13.466;2022-11-15T01:11:34;18.03;;;12.47;;
3193;SDS011;1608;50.860;13.466;2022-11-15T01:14:02;27.80;;;13.70;;
3193;SDS011;1608;50.860;13.466;2022-11-15T01:16:28;26.23;;;13.67;;
3193;SDS011;1608;50.860;13.466;2022-11-15T01:18:56;25.33;;;13.33;;
3193;SDS011;1608;50.860;13.466;2022-11-15T01:21:23;24.57;;;13.27;;
3193;SDS011;1608;50.860;13.466;2022-11-15T01:23:52;27.37;;;13.53;;
3193;SDS011;1608;50.860;13.466;2022-11-15T01:26:19;30.10;;;18.70;;
3193;SDS011;1608;50.860;13.466;2022-11-15T01:28:46;29.20;;;15.27;;
3193;SDS011;1608;50.860;13.466;2022-11-15T01:31:15;26.30;;;16.87;;
3193;SDS011;1608;50.860;13.466;2022-11-15T01:33:43;32.83;;;17.50;;
3193;SDS011;1608;50.860;13.466;2022-11-15T01:36:11;33.13;;;17.50;;
3193;SDS011;1608;50.860;13.466;2022-11-15T01:38:39;34.80;;;19.93;;
3193;SDS011;1608;50.860;13.466;2022-11-15T01:41:06;40.17;;;20.83;;
3193;SDS011;1608;50.860;13.466;2022-11-15T01:43:39;35.23;;;17.23;;
3193;SDS011;1608;50.860;13.466;2022-11-15T01:46:09;35.73;;;18.63;;
3193;SDS011;1608;50.860;13.466;2022-11-15T01:48:48;33.00;;;20.50;;
3193;SDS011;1608;50.860;13.466;2022-11-15T01:51:17;24.93;;;17.40;;
3193;SDS011;1608;50.860;13.466;2022-11-15T01:53:49;34.67;;;18.60;;
3193;SDS011;1608;50.860;13.466;2022-11-15T01:56:21;39.87;;;18.63;;
3193;SDS011;1608;50.860;13.466;2022-11-15T01:58:51;32.73;;;18.43;;
3193;SDS011;1608;50.860;13.466;2022-11-15T02:01:22;35.40;;;17.33;;
3193;SDS011;1608;50.860;13.466;2022-11-15T02:03:52;39.67;;;19.40;;
3193;SDS011;1608;50.860;13.466;2022-11-15T02:06:24;38.57;;;18.30;;
3193;SDS011;1608;50.860;13.466;2022-11-15T02:08:51;38.17;;;18.73;;
3193;SDS011;1608;50.860;13.466;2022-11-15T02:11:18;37.97;;;19.90;;
3193;SDS011;1608;50.860;13.466;2022-11-15T02:13:45;35.13;;;18.70;;
3193;SDS011;1608;50.860;13.466;2022-11-15T02:16:13;33.20;;;17.63;;
3193;SDS011;1608;50.860;13.466;2022-11-15T02:18:48;39.30;;;19.90;;
3193;SDS011;1608;50.860;13.466;2022-11-15T02:21:22;34.87;;;18.60;;
3193;SDS011;1608;50.860;13.466;2022-11-15T02:27:13;30.47;;;18.57;;
3193;SDS011;1608;50.860;13.466;2022-11-15T02:30:18;36.57;;;19.60;;
3193;SDS011;1608;50.860;13.466;2022-11-15T02:32:50;36.87;;;18.00;;
3193;SDS011;1608;50.860;13.466;2022-11-15T02:35:23;29.47;;;17.07;;
3193;SDS011;1608;50.860;13.466;2022-11-15T02:38:02;37.20;;;17.50;;
3193;SDS011;1608;50.860;13.466;2022-11-15T02:40:37;33.50;;;18.87;;
3193;SDS011;1608;50.860;13.466;2022-11-15T02:43:10;28.23;;;15.07;;
3193;SDS011;1608;50.860;13.466;2022-11-15T02:46:00;30.20;;;18.90;;
3193;SDS011;1608;50.860;13.466;2022-11-15T02:48:31;30.80;;;17.23;;
3193;SDS011;1608;50.860;13.466;2022-11-15T02:50:59;29.53;;;16.40;;
3193;SDS011;1608;50.860;13.466;2022-11-15T02:53:27;26.97;;;16.33;;
3193;SDS011;1608;50.860;13.466;2022-11-15T02:55:54;24.37;;;15.00;;
3193;SDS011;1608;50.860;13.466;2022-11-15T02:58:37;28.73;;;16.90;;
3193;SDS011;1608;50.860;13.466;2022-11-15T03:01:26;34.83;;;15.30;;
3193;SDS011;1608;50.860;13.466;2022-11-15T03:04:07;31.63;;;17.87;;
3193;SDS011;1608;50.860;13.466;2022-11-15T03:06:46;26.60;;;15.43;;
3193;SDS011;1608;50.860;13.466;2022-11-15T03:09:20;31.13;;;16.63;;
3193;SDS011;1608;50.860;13.466;2022-11-15T03:11:56;29.87;;;16.23;;
3193;SDS011;1608;50.860;13.466;2022-11-15T03:14:28;31.10;;;16.43;;
3193;SDS011;1608;50.860;13.466;2022-11-15T03:17:01;30.77;;;15.40;;
3193;SDS011;1608;50.860;13.466;2022-11-15T03:19:37;28.23;;;15.00;;
3193;SDS011;1608;50.860;13.466;2022-11-15T03:22:09;30.33;;;16.40;;
3193;SDS011;1608;50.860;13.466;2022-11-15T03:24:40;33.13;;;17.07;;
3193;SDS011;1608;50.860;13.466;2022-11-15T03:27:09;30.37;;;14.70;;
3193;SDS011;1608;50.860;13.466;2022-11-15T03:29:42;25.43;;;15.50;;
3193;SDS011;1608;50.860;13.466;2022-11-15T03:32:14;27.07;;;15.17;;
3193;SDS011;1608;50.860;13.466;2022-11-15T03:34:46;21.50;;;14.97;;
3193;SDS011;1608;50.860;13.466;2022-11-15T03:37:17;29.30;;;16.43;;
3193;SDS011;1608;50.860;13.466;2022-11-15T03:39:50;27.70;;;15.77;;
3193;SDS011;1608;50.860;13.466;2022-11-15T03:42:19;29.90;;;14.70;;
3193;SDS011;1608;50.860;13.466;2022-11-15T03:44:52;26.07;;;16.03;;
3193;SDS011;1608;50.860;13.466;2022-11-15T03:47:29;31.00;;;15.70;;
3193;SDS011;1608;50.860;13.466;2022-11-15T03:50:01;34.17;;;15.60;;
3193;SDS011;1608;50.860;13.466;2022-11-15T03:52:31;28.93;;;14.40;;
3193;SDS011;1608;50.860;13.466;2022-11-15T03:55:00;34.37;;;16.00;;
3193;SDS011;1608;50.860;13.466;2022-11-15T03:57:28;31.43;;;15.70;;
3193;SDS011;1608;50.860;13.466;2022-11-15T03:59:55;27.33;;;16.30;;
3193;SDS011;1608;50.860;13.466;2022-11-15T04:02:22;31.20;;;14.47;;
3193;SDS011;1608;50.860;13.466;2022-11-15T04:04:50;26.40;;;13.70;;
3193;SDS011;1608;50.860;13.466;2022-11-15T04:07:17;23.83;;;13.93;;
3193;SDS011;1608;50.860;13.466;2022-11-15T04:09:44;31.33;;;16.67;;
3193;SDS011;1608;50.860;13.466;2022-11-15T04:12:29;33.97;;;18.23;;
3193;SDS011;1608;50.860;13.466;2022-11-15T04:14:59;28.83;;;13.70;;
3193;SDS011;1608;50.860;13.466;2022-11-15T04:17:36;27.23;;;14.47;;
3193;SDS011;1608;50.860;13.466;2022-11-15T04:20:07;27.20;;;15.00;;
3193;SDS011;1608;50.860;13.466;2022-11-15T04:22:53;25.63;;;14.20;;
3193;SDS011;1608;50.860;13.466;2022-11-15T04:25:38;23.07;;;13.50;;
3193;SDS011;1608;50.860;13.466;2022-11-15T04:28:05;28.00;;;14.70;;
3193;SDS011;1608;50.860;13.466;2022-11-15T04:30:32;31.17;;;15.37;;
3193;SDS011;1608;50.860;13.466;2022-11-15T04:32:59;20.50;;;15.23;;
3193;SDS011;1608;50.860;13.466;2022-11-15T04:35:27;21.87;;;13.27;;
3193;SDS011;1608;50.860;13.466;2022-11-15T04:37:54;27.77;;;14.00;;
3193;SDS011;1608;50.860;13.466;2022-11-15T04:40:22;18.73;;;12.03;;
3193;SDS011;1608;50.860;13.466;2022-11-15T04:42:48;19.50;;;12.97;;
3193;SDS011;1608;50.860;13.466;2022-11-15T04:45:15;25.10;;;14.20;;
3193;SDS011;1608;50.860;13.466;2022-11-15T04:47:43;23.97;;;13.63;;
3193;SDS011;1608;50.860;13.466;2022-11-15T04:50:10;26.90;;;13.07;;
3193;SDS011;1608;50.860;13.466;2022-11-15T04:52:39;30.50;;;15.03;;
3193;SDS011;1608;50.860;13.466;2022-11-15T04:55:07;32.83;;;14.60;;
3193;SDS011;1608;50.860;13.466;2022-11-15T04:57:34;23.17;;;12.73;;
3193;SDS011;1608;50.860;13.466;2022-11-15T05:00:01;27.53;;;13.87;;
3193;SDS011;1608;50.860;13.466;2022-11-15T05:02:30;25.03;;;12.63;;
3193;SDS011;1608;50.860;13.466;2022-11-15T05:05:10;27.67;;;14.40;;
3193;SDS011;1608;50.860;13.466;2022-11-15T05:07:37;26.33;;;15.10;;
3193;SDS011;1608;50.860;13.466;2022-11-15T05:10:06;25.40;;;15.20;;
3193;SDS011;1608;50.860;13.466;2022-11-15T05:12:33;23.03;;;13.27;;
3193;SDS011;1608;50.860;13.466;2022-11-15T05:14:59;21.40;;;12.20;;
3193;SDS011;1608;50.860;13.466;2022-11-15T05:17:26;24.20;;;13.33;;
3193;SDS011;1608;50.860;13.466;2022-11-15T05:19:53;27.33;;;14.20;;
3193;SDS011;1608;50.860;13.466;2022-11-15T05:22:20;28.27;;;14.57;;
3193;SDS011;1608;50.860;13.466;2022-11-15T05:24:48;22.93;;;15.00;;
3193;SDS011;1608;50.860;13.466;2022-11-15T05:27:15;25.80;;;15.43;;
3193;SDS011;1608;50.860;13.466;2022-11-15T05:29:42;22.97;;;12.77;;
3193;SDS011;1608;50.860;13.466;2022-11-15T05:32:09;27.00;;;13.10;;
3193;SDS011;1608;50.860;13.466;2022-11-15T05:34:37;28.37;;;15.73;;
3193;SDS011;1608;50.860;13.466;2022-11-15T05:37:04;34.83;;;15.60;;
3193;SDS011;1608;50.860;13.466;2022-11-15T05:39:31;27.83;;;16.53;;
3193;SDS011;1608;50.860;13.466;2022-11-15T05:42:00;27.17;;;15.23;;
3193;SDS011;1608;50.860;13.466;2022-11-15T05:44:32;27.40;;;17.90;;
3193;SDS011;1608;50.860;13.466;2022-11-15T05:47:02;24.13;;;14.73;;
3193;SDS011;1608;50.860;13.466;2022-11-15T05:49:31;27.50;;;13.67;;
3193;SDS011;1608;50.860;13.466;2022-11-15T05:52:00;24.57;;;13.40;;
3193;SDS011;1608;50.860;13.466;2022-11-15T05:54:31;25.03;;;14.20;;
3193;SDS011;1608;50.860;13.466;2022-11-15T05:57:00;23.60;;;14.17;;
3193;SDS011;1608;50.860;13.466;2022-11-15T05:59:28;26.30;;;13.10;;
3193;SDS011;1608;50.860;13.466;2022-11-15T06:01:56;28.87;;;14.47;;
3193;SDS011;1608;50.860;13.466;2022-11-15T06:04:23;23.57;;;15.77;;
3193;SDS011;1608;50.860;13.466;2022-11-15T06:06:50;24.10;;;13.20;;
3193;SDS011;1608;50.860;13.466;2022-11-15T06:09:16;28.20;;;15.03;;
3193;SDS011;1608;50.860;13.466;2022-11-15T06:11:43;23.53;;;13.83;;
3193;SDS011;1608;50.860;13.466;2022-11-15T06:14:11;19.03;;;12.40;;
3193;SDS011;1608;50.860;13.466;2022-11-15T06:16:38;21.87;;;12.30;;
3193;SDS011;1608;50.860;13.466;2022-11-15T06:19:05;23.07;;;12.30;;
3193;SDS011;1608;50.860;13.466;2022-11-15T06:21:32;21.73;;;11.67;;
3193;SDS011;1608;50.860;13.466;2022-11-15T06:23:59;24.03;;;12.00;;
3193;SDS011;1608;50.860;13.466;2022-11-15T06:26:26;22.20;;;12.73;;
3193;SDS011;1608;50.860;13.466;2022-11-15T06:28:53;27.87;;;14.80;;
3193;SDS011;1608;50.860;13.466;2022-11-15T06:31:21;24.17;;;15.17;;
3193;SDS011;1608;50.860;13.466;2022-11-15T06:33:48;24.53;;;13.60;;
3193;SDS011;1608;50.860;13.466;2022-11-15T06:36:15;19.47;;;11.23;;
3193;SDS011;1608;50.860;13.466;2022-11-15T06:38:42;20.23;;;12.20;;
3193;SDS011;1608;50.860;13.466;2022-11-15T06:41:10;24.73;;;13.37;;
3193;SDS011;1608;50.860;13.466;2022-11-15T06:43:38;21.23;;;12.63;;
3193;SDS011;1608;50.860;13.466;2022-11-15T06:46:06;20.00;;;11.87;;
3193;SDS011;1608;50.860;13.466;2022-11-15T06:48:34;21.33;;;12.97;;
3193;SDS011;1608;50.860;13.466;2022-11-15T06:51:02;22.40;;;11.77;;
3193;SDS011;1608;50.860;13.466;2022-11-15T06:53:30;21.47;;;12.20;;
3193;SDS011;1608;50.860;13.466;2022-11-15T06:55:58;20.03;;;11.97;;
3193;SDS011;1608;50.860;13.466;2022-11-15T06:58:26;20.20;;;12.37;;
3193;SDS011;1608;50.860;13.466;2022-11-15T07:00:53;14.50;;;9.60;;
3193;SDS011;1608;50.860;13.466;2022-11-15T07:03:20;18.60;;;10.10;;
3193;SDS011;1608;50.860;13.466;2022-11-15T07:05:52;16.40;;;10.30;;
3193;SDS011;1608;50.860;13.466;2022-11-15T07:08:19;19.23;;;10.30;;
3193;SDS011;1608;50.860;13.466;2022-11-15T07:10:46;18.17;;;11.00;;
3193;SDS011;1608;50.860;13.466;2022-11-15T07:13:13;18.77;;;10.30;;
3193;SDS011;1608;50.860;13.466;2022-11-15T07:15:40;16.93;;;9.53;;
3193;SDS011;1608;50.860;13.466;2022-11-15T07:18:07;15.10;;;9.80;;
3193;SDS011;1608;50.860;13.466;2022-11-15T07:20:33;19.87;;;11.13;;
3193;SDS011;1608;50.860;13.466;2022-11-15T07:23:02;17.23;;;10.63;;
3193;SDS011;1608;50.860;13.466;2022-11-15T07:25:30;17.17;;;10.83;;
3193;SDS011;1608;50.860;13.466;2022-11-15T07:27:58;18.37;;;11.40;;
3193;SDS011;1608;50.860;13.466;2022-11-15T07:30:25;18.93;;;10.40;;
3193;SDS011;1608;50.860;13.466;2022-11-15T07:32:53;20.10;;;10.40;;
3193;SDS011;1608;50.860;13.466;2022-11-15T07:35:20;18.83;;;10.30;;
3193;SDS011;1608;50.860;13.466;2022-11-15T07:37:52;13.70;;;8.93;;
3193;SDS011;1608;50.860;13.466;2022-11-15T07:40:22;14.40;;;8.17;;
3193;SDS011;1608;50.860;13.466;2022-11-15T07:42:49;19.17;;;10.17;;
3193;SDS011;1608;50.860;13.466;2022-11-15T07:45:19;15.70;;;9.97;;
3193;SDS011;1608;50.860;13.466;2022-11-15T07:47:46;15.53;;;9.90;;
3193;SDS011;1608;50.860;13.466;2022-11-15T07:50:13;12.23;;;8.80;;
3193;SDS011;1608;50.860;13.466;2022-11-15T07:52:40;11.77;;;8.47;;
3193;SDS011;1608;50.860;13.466;2022-11-15T07:55:07;17.30;;;10.03;;
3193;SDS011;1608;50.860;13.466;2022-11-15T07:57:36;13.47;;;8.70;;
3193;SDS011;1608;50.860;13.466;2022-11-15T08:00:04;15.67;;;8.87;;
3193;SDS011;1608;50.860;13.466;2022-11-15T08:02:31;18.80;;;8.47;;
3193;SDS011;1608;50.860;13.466;2022-11-15T08:04:58;11.63;;;7.60;;
3193;SDS011;1608;50.860;13.466;2022-11-15T08:07:27;16.57;;;8.87;;
3193;SDS011;1608;50.860;13.466;2022-11-15T08:09:55;9.87;;;7.40;;
3193;SDS011;1608;50.860;13.466;2022-11-15T08:12:22;12.70;;;7.27;;
3193;SDS011;1608;50.860;13.466;2022-11-15T08:14:50;11.00;;;7.20;;
3193;SDS011;1608;50.860;13.466;2022-11-15T08:17:17;10.90;;;6.90;;
3193;SDS011;1608;50.860;13.466;2022-11-15T08:19:44;10.20;;;6.00;;
3193;SDS011;1608;50.860;13.466;2022-11-15T08:22:11;9.50;;;6.97;;
3193;SDS011;1608;50.860;13.466;2022-11-15T08:24:38;11.77;;;6.10;;
3193;SDS011;1608;50.860;13.466;2022-11-15T08:27:05;12.00;;;6.27;;
3193;SDS011;1608;50.860;13.466;2022-11-15T08:29:39;8.30;;;7.33;;
3193;SDS011;1608;50.860;13.466;2022-11-15T08:32:08;10.93;;;8.20;;
3193;SDS011;1608;50.860;13.466;2022-11-15T08:34:35;6.57;;;5.13;;
3193;SDS011;1608;50.860;13.466;2022-11-15T08:37:01;6.67;;;5.07;;
3193;SDS011;1608;50.860;13.466;2022-11-15T08:39:28;11.63;;;5.83;;
3193;SDS011;1608;50.860;13.466;2022-11-15T08:41:55;9.20;;;5.97;;
3193;SDS011;1608;50.860;13.466;2022-11-15T08:44:22;12.57;;;7.60;;
3193;SDS011;1608;50.860;13.466;2022-11-15T08:46:49;6.93;;;5.97;;
3193;SDS011;1608;50.860;13.466;2022-11-15T08:49:18;8.77;;;5.57;;
3193;SDS011;1608;50.860;13.466;2022-11-15T08:51:45;11.30;;;7.30;;
3193;SDS011;1608;50.860;13.466;2022-11-15T08:54:12;11.77;;;6.90;;
3193;SDS011;1608;50.860;13.466;2022-11-15T08:56:39;7.90;;;4.30;;
3193;SDS011;1608;50.860;13.466;2022-11-15T08:59:05;6.73;;;4.47;;
3193;SDS011;1608;50.860;13.466;2022-11-15T09:01:32;6.60;;;4.77;;
3193;SDS011;1608;50.860;13.466;2022-11-15T09:03:59;5.80;;;4.27;;
3193;SDS011;1608;50.860;13.466;2022-11-15T09:06:27;4.33;;;3.93;;
3193;SDS011;1608;50.860;13.466;2022-11-15T09:08:54;9.90;;;5.53;;
3193;SDS011;1608;50.860;13.466;2022-11-15T09:11:21;9.70;;;4.73;;
3193;SDS011;1608;50.860;13.466;2022-11-15T09:13:48;7.80;;;4.23;;
3193;SDS011;1608;50.860;13.466;2022-11-15T09:16:15;4.40;;;4.00;;
3193;SDS011;1608;50.860;13.466;2022-11-15T09:18:42;6.83;;;4.80;;
3193;SDS011;1608;50.860;13.466;2022-11-15T09:21:09;7.47;;;5.70;;
3193;SDS011;1608;50.860;13.466;2022-11-15T09:23:37;10.30;;;4.90;;
3193;SDS011;1608;50.860;13.466;2022-11-15T09:26:04;6.23;;;5.57;;
3193;SDS011;1608;50.860;13.466;2022-11-15T09:28:31;13.50;;;4.87;;
3193;SDS011;1608;50.860;13.466;2022-11-15T09:30:59;9.00;;;6.50;;
3193;SDS011;1608;50.860;13.466;2022-11-15T09:33:27;6.63;;;5.10;;
3193;SDS011;1608;50.860;13.466;2022-11-15T09:35:57;13.03;;;5.70;;
3193;SDS011;1608;50.860;13.466;2022-11-15T09:38:26;7.97;;;5.10;;
3193;SDS011;1608;50.860;13.466;2022-11-15T09:40:57;7.90;;;5.10;;
3193;SDS011;1608;50.860;13.466;2022-11-15T09:43:40;7.87;;;5.17;;
3193;SDS011;1608;50.860;13.466;2022-11-15T09:46:17;6.87;;;5.27;;
3193;SDS011;1608;50.860;13.466;2022-11-15T09:48:53;8.43;;;5.00;;
3193;SDS011;1608;50.860;13.466;2022-11-15T09:51:26;5.90;;;4.27;;
3193;SDS011;1608;50.860;13.466;2022-11-15T09:53:57;7.70;;;5.43;;
3193;SDS011;1608;50.860;13.466;2022-11-15T09:56:31;9.83;;;4.73;;
3193;SDS011;1608;50.860;13.466;2022-11-15T09:59:04;6.40;;;4.70;;
3193;SDS011;1608;50.860;13.466;2022-11-15T10:01:43;5.80;;;4.47;;
3193;SDS011;1608;50.860;13.466;2022-11-15T10:04:15;4.50;;;4.10;;
3193;SDS011;1608;50.860;13.466;2022-11-15T10:06:46;6.50;;;4.83;;
3193;SDS011;1608;50.860;13.466;2022-11-15T10:09:19;6.33;;;4.10;;
3193;SDS011;1608;50.860;13.466;2022-11-15T10:11:51;5.67;;;4.67;;
3193;SDS011;1608;50.860;13.466;2022-11-15T10:14:18;7.60;;;5.10;;
3193;SDS011;1608;50.860;13.466;2022-11-15T10:19:55;8.20;;;4.57;;
3193;SDS011;1608;50.860;13.466;2022-11-15T10:22:32;7.00;;;4.60;;
3193;SDS011;1608;50.860;13.466;2022-11-15T10:25:14;11.57;;;4.33;;
3193;SDS011;1608;50.860;13.466;2022-11-15T10:27:47;6.27;;;3.83;;
3193;SDS011;1608;50.860;13.466;2022-11-15T10:30:19;8.00;;;4.20;;
3193;SDS011;1608;50.860;13.466;2022-11-15T10:32:46;5.00;;;3.67;;
3193;SDS011;1608;50.860;13.466;2022-11-15T10:35:19;7.80;;;4.37;;
3193;SDS011;1608;50.860;13.466;2022-11-15T10:37:47;4.57;;;3.30;;
3193;SDS011;1608;50.860;13.466;2022-11-15T10:40:16;8.40;;;3.90;;
3193;SDS011;1608;50.860;13.466;2022-11-15T10:42:46;4.13;;;3.47;;
3193;SDS011;1608;50.860;13.466;2022-11-15T10:45:23;5.00;;;3.60;;
3193;SDS011;1608;50.860;13.466;2022-11-15T10:47:52;5.90;;;3.60;;
3193;SDS011;1608;50.860;13.466;2022-11-15T10:50:26;4.10;;;3.47;;
3193;SDS011;1608;50.860;13.466;2022-11-15T10:52:55;3.40;;;2.90;;
3193;SDS011;1608;50.860;13.466;2022-11-15T10:55:23;5.13;;;3.37;;
3193;SDS011;1608;50.860;13.466;2022-11-15T10:57:54;4.67;;;3.40;;
3193;SDS011;1608;50.860;13.466;2022-11-15T11:00:27;4.33;;;3.50;;
3193;SDS011;1608;50.860;13.466;2022-11-15T11:02:58;6.60;;;3.43;;
3193;SDS011;1608;50.860;13.466;2022-11-15T11:05:27;5.00;;;3.60;;
3193;SDS011;1608;50.860;13.466;2022-11-15T11:07:57;4.50;;;2.77;;
3193;SDS011;1608;50.860;13.466;2022-11-15T11:10:26;4.47;;;3.30;;
3193;SDS011;1608;50.860;13.466;2022-11-15T11:12:55;4.60;;;2.97;;
3193;SDS011;1608;50.860;13.466;2022-11-15T11:15:22;6.10;;;3.70;;
3193;SDS011;1608;50.860;13.466;2022-11-15T11:17:56;3.50;;;3.13;;
3193;SDS011;1608;50.860;13.466;2022-11-15T11:20:29;5.80;;;3.23;;
3193;SDS011;1608;50.860;13.466;2022-11-15T11:23:04;3.40;;;2.63;;
3193;SDS011;1608;50.860;13.466;2022-11-15T11:25:47;4.30;;;2.90;;
3193;SDS011;1608;50.860;13.466;2022-11-15T11:28:32;3.83;;;2.67;;
3193;SDS011;1608;50.860;13.466;2022-11-15T11:31:09;8.33;;;3.00;;
3193;SDS011;1608;50.860;13.466;2022-11-15T11:33:44;6.93;;;4.30;;
3193;SDS011;1608;50.860;13.466;2022-11-15T11:36:19;3.23;;;2.93;;
3193;SDS011;1608;50.860;13.466;2022-11-15T11:38:58;6.30;;;3.00;;
3193;SDS011;1608;50.860;13.466;2022-11-15T11:41:46;4.33;;;3.20;;
3193;SDS011;1608;50.860;13.466;2022-11-15T11:44:25;6.30;;;3.00;;
3193;SDS011;1608;50.860;13.466;2022-11-15T11:46:59;3.73;;;3.00;;
3193;SDS011;1608;50.860;13.466;2022-11-15T11:49:33;4.83;;;2.80;;
3193;SDS011;1608;50.860;13.466;2022-11-15T11:52:10;5.40;;;2.77;;
3193;SDS011;1608;50.860;13.466;2022-11-15T11:54:42;3.50;;;3.07;;
3193;SDS011;1608;50.860;13.466;2022-11-15T11:57:21;6.43;;;3.20;;
3193;SDS011;1608;50.860;13.466;2022-11-15T11:59:55;4.10;;;3.10;;
3193;SDS011;1608;50.860;13.466;2022-11-15T12:02:28;5.17;;;4.67;;
3193;SDS011;1608;50.860;13.466;2022-11-15T12:05:01;6.77;;;3.40;;
3193;SDS011;1608;50.860;13.466;2022-11-15T12:07:35;5.93;;;3.40;;
3193;SDS011;1608;50.860;13.466;2022-11-15T12:10:11;4.17;;;2.80;;
3193;SDS011;1608;50.860;13.466;2022-11-15T12:12:47;3.30;;;2.77;;
3193;SDS011;1608;50.860;13.466;2022-11-15T12:15:22;3.60;;;3.27;;
3193;SDS011;1608;50.860;13.466;2022-11-15T12:17:51;7.37;;;3.60;;
3193;SDS011;1608;50.860;13.466;2022-11-15T12:20:19;5.30;;;3.17;;
3193;SDS011;1608;50.860;13.466;2022-11-15T12:22:49;5.60;;;3.43;;
3193;SDS011;1608;50.860;13.466;2022-11-15T12:25:21;3.90;;;3.03;;
3193;SDS011;1608;50.860;13.466;2022-11-15T12:27:54;6.00;;;3.67;;
3193;SDS011;1608;50.860;13.466;2022-11-15T12:30:27;5.60;;;4.10;;
3193;SDS011;1608;50.860;13.466;2022-11-15T12:33:16;7.10;;;4.43;;
3193;SDS011;1608;50.860;13.466;2022-11-15T12:36:08;5.43;;;3.70;;
3193;SDS011;1608;50.860;13.466;2022-11-15T12:38:55;6.67;;;3.77;;
3193;SDS011;1608;50.860;13.466;2022-11-15T12:41:24;3.40;;;2.60;;
3193;SDS011;1608;50.860;13.466;2022-11-15T12:43:52;6.60;;;4.10;;
3193;SDS011;1608;50.860;13.466;2022-11-15T12:46:22;4.70;;;3.90;;
3193;SDS011;1608;50.860;13.466;2022-11-15T12:52:09;4.67;;;3.10;;
3193;SDS011;1608;50.860;13.466;2022-11-15T12:54:53;6.20;;;4.03;;
3193;SDS011;1608;50.860;13.466;2022-11-15T12:57:36;6.90;;;4.13;;
3193;SDS011;1608;50.860;13.466;2022-11-15T13:00:36;3.93;;;3.17;;
3193;SDS011;1608;50.860;13.466;2022-11-15T13:03:16;13.03;;;2.77;;
3193;SDS011;1608;50.860;13.466;2022-11-15T13:05:58;5.87;;;3.10;;
3193;SDS011;1608;50.860;13.466;2022-11-15T13:08:40;4.23;;;2.50;;
3193;SDS011;1608;50.860;13.466;2022-11-15T13:17:20;3.83;;;2.93;;
3193;SDS011;1608;50.860;13.466;2022-11-15T13:19:55;4.97;;;3.20;;
3193;SDS011;1608;50.860;13.466;2022-11-15T13:22:25;5.93;;;3.37;;
3193;SDS011;1608;50.860;13.466;2022-11-15T13:25:14;5.73;;;3.00;;
3193;SDS011;1608;50.860;13.466;2022-11-15T13:27:45;3.47;;;3.17;;
3193;SDS011;1608;50.860;13.466;2022-11-15T13:30:14;4.00;;;3.30;;
3193;SDS011;1608;50.860;13.466;2022-11-15T13:32:49;3.20;;;2.23;;
3193;SDS011;1608;50.860;13.466;2022-11-15T13:35:23;12.23;;;3.07;;
3193;SDS011;1608;50.860;13.466;2022-11-15T13:37:51;4.03;;;3.07;;
3193;SDS011;1608;50.860;13.466;2022-11-15T13:40:21;3.67;;;2.10;;
3193;SDS011;1608;50.860;13.466;2022-11-15T13:42:50;5.47;;;2.90;;
3193;SDS011;1608;50.860;13.466;2022-11-15T13:45:18;3.53;;;2.43;;
3193;SDS011;1608;50.860;13.466;2022-11-15T13:50:11;3.43;;;3.00;;
3193;SDS011;1608;50.860;13.466;2022-11-15T13:52:40;5.63;;;2.70;;
3193;SDS011;1608;50.860;13.466;2022-11-15T13:55:11;4.67;;;3.50;;
3193;SDS011;1608;50.860;13.466;2022-11-15T13:57:41;6.63;;;3.37;;
3193;SDS011;1608;50.860;13.466;2022-11-15T14:00:30;4.37;;;2.37;;
3193;SDS011;1608;50.860;13.466;2022-11-15T14:03:07;4.40;;;3.67;;
3193;SDS011;1608;50.860;13.466;2022-11-15T14:05:42;4.17;;;2.70;;
3193;SDS011;1608;50.860;13.466;2022-11-15T14:08:21;6.37;;;3.50;;
3193;SDS011;1608;50.860;13.466;2022-11-15T14:11:05;5.87;;;3.30;;
3193;SDS011;1608;50.860;13.466;2022-11-15T14:13:33;3.10;;;2.57;;
3193;SDS011;1608;50.860;13.466;2022-11-15T14:16:13;5.97;;;3.23;;
3193;SDS011;1608;50.860;13.466;2022-11-15T14:18:43;5.73;;;2.97;;
3193;SDS011;1608;50.860;13.466;2022-11-15T14:21:11;11.93;;;2.90;;
3193;SDS011;1608;50.860;13.466;2022-11-15T14:23:40;5.00;;;3.30;;
3193;SDS011;1608;50.860;13.466;2022-11-15T14:26:11;5.77;;;3.40;;
3193;SDS011;1608;50.860;13.466;2022-11-15T14:28:52;4.87;;;3.27;;
3193;SDS011;1608;50.860;13.466;2022-11-15T14:31:18;5.10;;;3.60;;
3193;SDS011;1608;50.860;13.466;2022-11-15T14:33:46;4.30;;;3.60;;
3193;SDS011;1608;50.860;13.466;2022-11-15T14:36:14;4.77;;;3.63;;
3193;SDS011;1608;50.860;13.466;2022-11-15T14:38:43;3.83;;;3.30;;
3193;SDS011;1608;50.860;13.466;2022-11-15T14:41:12;5.13;;;3.20;;
3193;SDS011;1608;50.860;13.466;2022-11-15T14:43:44;12.03;;;5.07;;
3193;SDS011;1608;50.860;13.466;2022-11-15T14:46:11;4.37;;;3.17;;
3193;SDS011;1608;50.860;13.466;2022-11-15T14:48:38;4.23;;;3.10;;
3193;SDS011;1608;50.860;13.466;2022-11-15T14:51:09;10.10;;;3.90;;
3193;SDS011;1608;50.860;13.466;2022-11-15T14:53:38;9.20;;;3.60;;
3193;SDS011;1608;50.860;13.466;2022-11-15T14:56:07;5.47;;;3.83;;
3193;SDS011;1608;50.860;13.466;2022-11-15T14:58:34;6.27;;;3.60;;
3193;SDS011;1608;50.860;13.466;2022-11-15T15:01:02;6.37;;;3.33;;
3193;SDS011;1608;50.860;13.466;2022-11-15T15:03:36;6.90;;;4.40;;
3193;SDS011;1608;50.860;13.466;2022-11-15T15:06:03;8.10;;;5.07;;
3193;SDS011;1608;50.860;13.466;2022-11-15T15:08:30;10.13;;;4.07;;
3193;SDS011;1608;50.860;13.466;2022-11-15T15:10:57;6.00;;;3.80;;
3193;SDS011;1608;50.860;13.466;2022-11-15T15:13:26;5.00;;;3.80;;
3193;SDS011;1608;50.860;13.466;2022-11-15T15:15:55;26.83;;;15.70;;
3193;SDS011;1608;50.860;13.466;2022-11-15T15:18:22;15.10;;;9.73;;
3193;SDS011;1608;50.860;13.466;2022-11-15T15:20:51;7.50;;;6.30;;
3193;SDS011;1608;50.860;13.466;2022-11-15T15:23:21;10.00;;;8.67;;